Appleton, Maine
Current Conditions -  °F | °C
As of 8:55 AM on Monday 20 Oct 2014 (Local Time) from KRKD Reporting Station
Clear Clear  
Wind Chill: 34°   Ceiling: Unl
Heat Index: 41°   Visibility: 10mi
Dew Point: 25°   Wind: 12mph
Humidity: 53%   Direction: 290°WNW
Pressure: 29.95"   Gusts: 18mph
Location:  44.2596°N, 69.2573°W
Report Text: KRKD 201255Z AUTO 29010G16KT 10SM CLR 05/M04 A2995 RMK AO1
Loading
Personal Weather Stations






























Interactive Weather Map
Tropical Storm Tracking
New forecast layout! Learn more

10-Day Weather Forecast

Advertisements
Track Severe Weather on mobile